sensor_id;sensor_type;location;lat;lon;timestamp;P1;durP1;ratioP1;P2;durP2;ratioP2
36001;SDS011;22070;50.922;5.430;2024-02-15T00:03:25;8.55;;;3.22;;
36001;SDS011;22070;50.922;5.430;2024-02-15T00:05:51;7.53;;;3.50;;
36001;SDS011;22070;50.922;5.430;2024-02-15T00:08:17;8.07;;;2.90;;
36001;SDS011;22070;50.922;5.430;2024-02-15T00:10:45;8.98;;;3.42;;
36001;SDS011;22070;50.922;5.430;2024-02-15T00:13:11;17.17;;;3.70;;
36001;SDS011;22070;50.922;5.430;2024-02-15T00:15:38;13.23;;;3.80;;
36001;SDS011;22070;50.922;5.430;2024-02-15T00:18:04;11.23;;;3.27;;
36001;SDS011;22070;50.922;5.430;2024-02-15T00:20:29;12.00;;;3.70;;
36001;SDS011;22070;50.922;5.430;2024-02-15T00:22:55;12.93;;;3.43;;
36001;SDS011;22070;50.922;5.430;2024-02-15T00:25:21;10.40;;;3.00;;
36001;SDS011;22070;50.922;5.430;2024-02-15T00:27:47;11.57;;;3.57;;
36001;SDS011;22070;50.922;5.430;2024-02-15T00:30:12;6.53;;;2.27;;
36001;SDS011;22070;50.922;5.430;2024-02-15T00:32:38;8.55;;;2.85;;
36001;SDS011;22070;50.922;5.430;2024-02-15T00:35:04;10.60;;;2.70;;
36001;SDS011;22070;50.922;5.430;2024-02-15T00:37:33;8.15;;;2.67;;
36001;SDS011;22070;50.922;5.430;2024-02-15T00:39:58;8.40;;;2.23;;
36001;SDS011;22070;50.922;5.430;2024-02-15T00:42:24;4.70;;;2.43;;
36001;SDS011;22070;50.922;5.430;2024-02-15T00:44:50;11.45;;;3.08;;
36001;SDS011;22070;50.922;5.430;2024-02-15T00:47:16;10.97;;;3.23;;
36001;SDS011;22070;50.922;5.430;2024-02-15T00:49:45;11.73;;;3.00;;
36001;SDS011;22070;50.922;5.430;2024-02-15T00:52:10;10.33;;;3.07;;
36001;SDS011;22070;50.922;5.430;2024-02-15T00:54:36;6.23;;;2.87;;
36001;SDS011;22070;50.922;5.430;2024-02-15T00:57:01;8.67;;;2.80;;
36001;SDS011;22070;50.922;5.430;2024-02-15T00:59:27;4.43;;;2.77;;
36001;SDS011;22070;50.922;5.430;2024-02-15T01:01:53;10.90;;;3.20;;
36001;SDS011;22070;50.922;5.430;2024-02-15T01:04:19;12.55;;;3.17;;
36001;SDS011;22070;50.922;5.430;2024-02-15T01:06:45;10.33;;;2.83;;
36001;SDS011;22070;50.922;5.430;2024-02-15T01:09:11;11.10;;;2.70;;
36001;SDS011;22070;50.922;5.430;2024-02-15T01:11:38;7.47;;;2.80;;
36001;SDS011;22070;50.922;5.430;2024-02-15T01:14:03;6.83;;;2.70;;
36001;SDS011;22070;50.922;5.430;2024-02-15T01:16:29;8.53;;;2.63;;
36001;SDS011;22070;50.922;5.430;2024-02-15T01:18:55;10.55;;;2.60;;
36001;SDS011;22070;50.922;5.430;2024-02-15T01:21:21;6.90;;;2.47;;
36001;SDS011;22070;50.922;5.430;2024-02-15T01:23:47;9.20;;;2.50;;
36001;SDS011;22070;50.922;5.430;2024-02-15T01:26:13;10.90;;;2.57;;
36001;SDS011;22070;50.922;5.430;2024-02-15T01:28:39;10.45;;;2.92;;
36001;SDS011;22070;50.922;5.430;2024-02-15T01:31:08;10.57;;;3.17;;
36001;SDS011;22070;50.922;5.430;2024-02-15T01:33:35;10.15;;;2.40;;
36001;SDS011;22070;50.922;5.430;2024-02-15T01:36:01;6.47;;;2.30;;
36001;SDS011;22070;50.922;5.430;2024-02-15T01:38:28;11.98;;;1.92;;
36001;SDS011;22070;50.922;5.430;2024-02-15T01:40:53;8.90;;;2.20;;
36001;SDS011;22070;50.922;5.430;2024-02-15T01:43:19;3.40;;;1.43;;
36001;SDS011;22070;50.922;5.430;2024-02-15T01:45:44;7.70;;;1.87;;
36001;SDS011;22070;50.922;5.430;2024-02-15T01:48:12;12.50;;;2.30;;
36001;SDS011;22070;50.922;5.430;2024-02-15T01:50:39;12.40;;;2.22;;
36001;SDS011;22070;50.922;5.430;2024-02-15T01:53:06;5.63;;;1.93;;
36001;SDS011;22070;50.922;5.430;2024-02-15T01:55:33;8.60;;;2.20;;
36001;SDS011;22070;50.922;5.430;2024-02-15T01:58:00;5.85;;;1.60;;
36001;SDS011;22070;50.922;5.430;2024-02-15T02:00:26;11.40;;;2.15;;
36001;SDS011;22070;50.922;5.430;2024-02-15T02:02:53;10.40;;;2.20;;
36001;SDS011;22070;50.922;5.430;2024-02-15T02:05:19;6.10;;;1.77;;
36001;SDS011;22070;50.922;5.430;2024-02-15T02:07:46;7.10;;;2.15;;
36001;SDS011;22070;50.922;5.430;2024-02-15T02:10:12;6.60;;;1.70;;
36001;SDS011;22070;50.922;5.430;2024-02-15T02:12:38;5.33;;;2.00;;
36001;SDS011;22070;50.922;5.430;2024-02-15T02:15:07;7.03;;;1.85;;
36001;SDS011;22070;50.922;5.430;2024-02-15T02:17:36;5.20;;;1.75;;
36001;SDS011;22070;50.922;5.430;2024-02-15T02:20:02;6.73;;;1.40;;
36001;SDS011;22070;50.922;5.430;2024-02-15T02:22:33;7.90;;;2.33;;
36001;SDS011;22070;50.922;5.430;2024-02-15T02:25:07;7.43;;;1.77;;
36001;SDS011;22070;50.922;5.430;2024-02-15T02:27:33;6.03;;;1.70;;
36001;SDS011;22070;50.922;5.430;2024-02-15T02:30:02;7.95;;;1.73;;
36001;SDS011;22070;50.922;5.430;2024-02-15T02:32:32;6.60;;;2.03;;
36001;SDS011;22070;50.922;5.430;2024-02-15T02:34:59;5.60;;;1.80;;
36001;SDS011;22070;50.922;5.430;2024-02-15T02:37:25;7.40;;;1.60;;
36001;SDS011;22070;50.922;5.430;2024-02-15T02:39:51;6.03;;;1.73;;
36001;SDS011;22070;50.922;5.430;2024-02-15T02:42:17;10.37;;;1.57;;
36001;SDS011;22070;50.922;5.430;2024-02-15T02:44:43;6.37;;;1.90;;
36001;SDS011;22070;50.922;5.430;2024-02-15T02:47:09;6.50;;;1.50;;
36001;SDS011;22070;50.922;5.430;2024-02-15T02:49:35;6.28;;;1.35;;
36001;SDS011;22070;50.922;5.430;2024-02-15T02:52:01;9.27;;;1.67;;
36001;SDS011;22070;50.922;5.430;2024-02-15T02:54:28;6.75;;;1.50;;
36001;SDS011;22070;50.922;5.430;2024-02-15T02:56:54;4.50;;;1.30;;
36001;SDS011;22070;50.922;5.430;2024-02-15T02:59:20;4.40;;;1.37;;
36001;SDS011;22070;50.922;5.430;2024-02-15T03:01:46;5.35;;;1.42;;
36001;SDS011;22070;50.922;5.430;2024-02-15T03:04:14;3.28;;;1.30;;
36001;SDS011;22070;50.922;5.430;2024-02-15T03:06:42;2.42;;;1.33;;
36001;SDS011;22070;50.922;5.430;2024-02-15T03:09:08;6.35;;;1.17;;
36001;SDS011;22070;50.922;5.430;2024-02-15T03:11:35;7.22;;;1.48;;
36001;SDS011;22070;50.922;5.430;2024-02-15T03:14:01;5.57;;;1.33;;
36001;SDS011;22070;50.922;5.430;2024-02-15T03:16:32;4.90;;;1.20;;
36001;SDS011;22070;50.922;5.430;2024-02-15T03:18:58;6.25;;;1.58;;
36001;SDS011;22070;50.922;5.430;2024-02-15T03:21:28;3.83;;;1.33;;
36001;SDS011;22070;50.922;5.430;2024-02-15T03:23:54;4.20;;;1.50;;
36001;SDS011;22070;50.922;5.430;2024-02-15T03:26:29;3.90;;;1.10;;
36001;SDS011;22070;50.922;5.430;2024-02-15T03:29:01;5.25;;;1.10;;
36001;SDS011;22070;50.922;5.430;2024-02-15T03:31:28;5.88;;;1.20;;
36001;SDS011;22070;50.922;5.430;2024-02-15T03:33:53;3.87;;;1.17;;
36001;SDS011;22070;50.922;5.430;2024-02-15T03:36:19;5.63;;;1.00;;
36001;SDS011;22070;50.922;5.430;2024-02-15T03:38:45;4.90;;;1.70;;
36001;SDS011;22070;50.922;5.430;2024-02-15T03:41:11;3.80;;;1.23;;
36001;SDS011;22070;50.922;5.430;2024-02-15T03:43:37;6.03;;;1.30;;
36001;SDS011;22070;50.922;5.430;2024-02-15T03:46:03;3.08;;;1.13;;
36001;SDS011;22070;50.922;5.430;2024-02-15T03:48:29;4.10;;;0.87;;
36001;SDS011;22070;50.922;5.430;2024-02-15T03:50:57;3.47;;;1.17;;
36001;SDS011;22070;50.922;5.430;2024-02-15T03:53:23;2.35;;;1.27;;
36001;SDS011;22070;50.922;5.430;2024-02-15T03:55:49;6.27;;;1.33;;
36001;SDS011;22070;50.922;5.430;2024-02-15T03:58:18;4.40;;;1.10;;
36001;SDS011;22070;50.922;5.430;2024-02-15T04:00:44;6.30;;;1.53;;
36001;SDS011;22070;50.922;5.430;2024-02-15T04:03:10;5.88;;;1.50;;
36001;SDS011;22070;50.922;5.430;2024-02-15T04:05:36;2.07;;;0.80;;
36001;SDS011;22070;50.922;5.430;2024-02-15T04:08:01;2.67;;;0.77;;
36001;SDS011;22070;50.922;5.430;2024-02-15T04:10:27;3.37;;;1.20;;
36001;SDS011;22070;50.922;5.430;2024-02-15T04:12:53;3.33;;;1.23;;
36001;SDS011;22070;50.922;5.430;2024-02-15T04:15:19;4.47;;;0.97;;
36001;SDS011;22070;50.922;5.430;2024-02-15T04:17:45;4.70;;;1.33;;
36001;SDS011;22070;50.922;5.430;2024-02-15T04:20:10;8.57;;;1.77;;
36001;SDS011;22070;50.922;5.430;2024-02-15T04:22:37;7.82;;;1.45;;
36001;SDS011;22070;50.922;5.430;2024-02-15T04:25:06;7.28;;;1.15;;
36001;SDS011;22070;50.922;5.430;2024-02-15T04:27:34;5.38;;;1.10;;
36001;SDS011;22070;50.922;5.430;2024-02-15T04:30:01;4.07;;;1.27;;
36001;SDS011;22070;50.922;5.430;2024-02-15T04:32:27;4.45;;;1.25;;
36001;SDS011;22070;50.922;5.430;2024-02-15T04:34:54;3.38;;;1.02;;
36001;SDS011;22070;50.922;5.430;2024-02-15T04:37:19;5.60;;;1.10;;
36001;SDS011;22070;50.922;5.430;2024-02-15T04:39:45;6.30;;;1.43;;
36001;SDS011;22070;50.922;5.430;2024-02-15T04:42:12;3.08;;;1.40;;
36001;SDS011;22070;50.922;5.430;2024-02-15T04:44:38;6.83;;;1.20;;
36001;SDS011;22070;50.922;5.430;2024-02-15T04:47:05;2.80;;;1.48;;
36001;SDS011;22070;50.922;5.430;2024-02-15T04:49:31;4.95;;;1.27;;
36001;SDS011;22070;50.922;5.430;2024-02-15T04:52:03;3.83;;;1.20;;
36001;SDS011;22070;50.922;5.430;2024-02-15T04:54:29;4.13;;;1.63;;
36001;SDS011;22070;50.922;5.430;2024-02-15T04:56:56;3.47;;;1.25;;
36001;SDS011;22070;50.922;5.430;2024-02-15T04:59:22;3.63;;;1.52;;
36001;SDS011;22070;50.922;5.430;2024-02-15T05:01:51;6.68;;;1.60;;
36001;SDS011;22070;50.922;5.430;2024-02-15T05:04:17;3.40;;;1.30;;
36001;SDS011;22070;50.922;5.430;2024-02-15T05:06:43;2.77;;;1.30;;
36001;SDS011;22070;50.922;5.430;2024-02-15T05:09:10;5.03;;;1.52;;
36001;SDS011;22070;50.922;5.430;2024-02-15T05:11:39;5.80;;;1.37;;
36001;SDS011;22070;50.922;5.430;2024-02-15T05:14:12;3.75;;;1.25;;
36001;SDS011;22070;50.922;5.430;2024-02-15T05:16:43;5.03;;;1.45;;
36001;SDS011;22070;50.922;5.430;2024-02-15T05:19:13;4.22;;;1.13;;
36001;SDS011;22070;50.922;5.430;2024-02-15T05:24:05;5.35;;;1.40;;
36001;SDS011;22070;50.922;5.430;2024-02-15T05:26:31;3.07;;;1.07;;
36001;SDS011;22070;50.922;5.430;2024-02-15T05:28:58;6.57;;;0.88;;
36001;SDS011;22070;50.922;5.430;2024-02-15T05:31:23;6.47;;;1.47;;
36001;SDS011;22070;50.922;5.430;2024-02-15T05:33:52;4.47;;;1.00;;
36001;SDS011;22070;50.922;5.430;2024-02-15T05:38:46;3.70;;;1.35;;
36001;SDS011;22070;50.922;5.430;2024-02-15T05:41:13;7.85;;;1.27;;
36001;SDS011;22070;50.922;5.430;2024-02-15T05:43:39;6.63;;;1.30;;
36001;SDS011;22070;50.922;5.430;2024-02-15T05:46:09;6.97;;;1.63;;
36001;SDS011;22070;50.922;5.430;2024-02-15T05:48:35;5.60;;;1.20;;
36001;SDS011;22070;50.922;5.430;2024-02-15T05:51:06;5.03;;;1.38;;
36001;SDS011;22070;50.922;5.430;2024-02-15T05:53:33;7.45;;;1.27;;
36001;SDS011;22070;50.922;5.430;2024-02-15T05:56:05;4.82;;;1.00;;
36001;SDS011;22070;50.922;5.430;2024-02-15T05:58:32;5.05;;;1.27;;
36001;SDS011;22070;50.922;5.430;2024-02-15T06:00:58;3.78;;;1.17;;
36001;SDS011;22070;50.922;5.430;2024-02-15T06:03:30;5.45;;;1.30;;
36001;SDS011;22070;50.922;5.430;2024-02-15T06:06:00;8.02;;;1.27;;
36001;SDS011;22070;50.922;5.430;2024-02-15T06:08:30;6.40;;;1.95;;
36001;SDS011;22070;50.922;5.430;2024-02-15T06:10:56;5.75;;;1.20;;
36001;SDS011;22070;50.922;5.430;2024-02-15T06:13:22;6.10;;;1.40;;
36001;SDS011;22070;50.922;5.430;2024-02-15T06:15:49;4.53;;;1.30;;
36001;SDS011;22070;50.922;5.430;2024-02-15T06:18:21;4.15;;;0.90;;
36001;SDS011;22070;50.922;5.430;2024-02-15T06:20:49;8.30;;;1.40;;
36001;SDS011;22070;50.922;5.430;2024-02-15T06:23:19;2.38;;;0.80;;
36001;SDS011;22070;50.922;5.430;2024-02-15T06:25:46;3.72;;;1.17;;
36001;SDS011;22070;50.922;5.430;2024-02-15T06:28:12;3.95;;;0.93;;
36001;SDS011;22070;50.922;5.430;2024-02-15T06:30:45;5.53;;;1.20;;
36001;SDS011;22070;50.922;5.430;2024-02-15T06:33:29;3.15;;;1.10;;
36001;SDS011;22070;50.922;5.430;2024-02-15T06:36:13;2.78;;;1.23;;
36001;SDS011;22070;50.922;5.430;2024-02-15T06:38:57;3.65;;;1.10;;
36001;SDS011;22070;50.922;5.430;2024-02-15T06:41:41;2.92;;;0.85;;
36001;SDS011;22070;50.922;5.430;2024-02-15T06:44:06;5.17;;;1.30;;
36001;SDS011;22070;50.922;5.430;2024-02-15T06:46:32;4.40;;;1.27;;
36001;SDS011;22070;50.922;5.430;2024-02-15T06:48:58;3.07;;;0.90;;
36001;SDS011;22070;50.922;5.430;2024-02-15T06:51:24;2.40;;;1.30;;
36001;SDS011;22070;50.922;5.430;2024-02-15T06:53:49;3.83;;;1.10;;
36001;SDS011;22070;50.922;5.430;2024-02-15T06:58:45;1.65;;;1.00;;
36001;SDS011;22070;50.922;5.430;2024-02-15T07:01:11;3.70;;;1.30;;
36001;SDS011;22070;50.922;5.430;2024-02-15T07:03:38;5.72;;;1.52;;
36001;SDS011;22070;50.922;5.430;2024-02-15T07:06:04;6.03;;;1.47;;
36001;SDS011;22070;50.922;5.430;2024-02-15T07:08:31;1.67;;;0.73;;
36001;SDS011;22070;50.922;5.430;2024-02-15T07:10:57;3.83;;;1.00;;
36001;SDS011;22070;50.922;5.430;2024-02-15T07:13:23;2.55;;;1.10;;
36001;SDS011;22070;50.922;5.430;2024-02-15T07:15:51;5.03;;;0.88;;
36001;SDS011;22070;50.922;5.430;2024-02-15T07:18:17;2.33;;;0.87;;
36001;SDS011;22070;50.922;5.430;2024-02-15T07:20:47;4.05;;;1.05;;
36001;SDS011;22070;50.922;5.430;2024-02-15T07:23:13;5.17;;;1.30;;
36001;SDS011;22070;50.922;5.430;2024-02-15T07:25:39;2.67;;;0.70;;
36001;SDS011;22070;50.922;5.430;2024-02-15T07:28:05;6.88;;;1.08;;
36001;SDS011;22070;50.922;5.430;2024-02-15T07:30:34;3.70;;;0.93;;
36001;SDS011;22070;50.922;5.430;2024-02-15T07:32:59;3.47;;;1.07;;
36001;SDS011;22070;50.922;5.430;2024-02-15T07:35:25;3.60;;;0.93;;
36001;SDS011;22070;50.922;5.430;2024-02-15T07:37:51;7.37;;;1.10;;
36001;SDS011;22070;50.922;5.430;2024-02-15T07:40:20;3.03;;;1.10;;
36001;SDS011;22070;50.922;5.430;2024-02-15T07:45:13;2.20;;;0.75;;
36001;SDS011;22070;50.922;5.430;2024-02-15T07:47:39;3.97;;;1.10;;
36001;SDS011;22070;50.922;5.430;2024-02-15T07:50:04;2.77;;;0.90;;
36001;SDS011;22070;50.922;5.430;2024-02-15T07:52:30;1.40;;;0.73;;
36001;SDS011;22070;50.922;5.430;2024-02-15T07:54:56;5.00;;;0.87;;
36001;SDS011;22070;50.922;5.430;2024-02-15T07:57:22;6.70;;;1.10;;
36001;SDS011;22070;50.922;5.430;2024-02-15T07:59:48;1.40;;;0.97;;
36001;SDS011;22070;50.922;5.430;2024-02-15T08:02:14;3.50;;;1.20;;
36001;SDS011;22070;50.922;5.430;2024-02-15T08:04:43;3.15;;;0.70;;
36001;SDS011;22070;50.922;5.430;2024-02-15T08:07:09;3.93;;;0.80;;
36001;SDS011;22070;50.922;5.430;2024-02-15T08:09:36;2.03;;;0.77;;
36001;SDS011;22070;50.922;5.430;2024-02-15T08:12:02;2.00;;;0.80;;
36001;SDS011;22070;50.922;5.430;2024-02-15T08:14:28;4.97;;;0.77;;
36001;SDS011;22070;50.922;5.430;2024-02-15T08:16:54;4.83;;;0.90;;
36001;SDS011;22070;50.922;5.430;2024-02-15T08:19:20;2.57;;;0.83;;
36001;SDS011;22070;50.922;5.430;2024-02-15T08:21:48;3.80;;;0.80;;
36001;SDS011;22070;50.922;5.430;2024-02-15T08:24:16;2.00;;;0.73;;
36001;SDS011;22070;50.922;5.430;2024-02-15T08:26:42;2.70;;;0.67;;
36001;SDS011;22070;50.922;5.430;2024-02-15T08:29:08;0.97;;;0.40;;
36001;SDS011;22070;50.922;5.430;2024-02-15T08:31:38;1.42;;;0.88;;
36001;SDS011;22070;50.922;5.430;2024-02-15T08:34:06;2.55;;;0.90;;
36001;SDS011;22070;50.922;5.430;2024-02-15T08:36:34;3.08;;;0.80;;
36001;SDS011;22070;50.922;5.430;2024-02-15T08:39:01;5.53;;;0.67;;
36001;SDS011;22070;50.922;5.430;2024-02-15T08:41:26;3.30;;;0.83;;
36001;SDS011;22070;50.922;5.430;2024-02-15T08:43:52;4.30;;;0.67;;
36001;SDS011;22070;50.922;5.430;2024-02-15T08:46:18;4.63;;;1.00;;
36001;SDS011;22070;50.922;5.430;2024-02-15T08:48:47;3.75;;;0.52;;
36001;SDS011;22070;50.922;5.430;2024-02-15T08:51:13;1.65;;;0.70;;
36001;SDS011;22070;50.922;5.430;2024-02-15T08:53:39;3.00;;;0.63;;
36001;SDS011;22070;50.922;5.430;2024-02-15T08:56:04;1.33;;;0.60;;
36001;SDS011;22070;50.922;5.430;2024-02-15T08:58:31;1.83;;;0.75;;
36001;SDS011;22070;50.922;5.430;2024-02-15T09:00:57;1.43;;;0.43;;
36001;SDS011;22070;50.922;5.430;2024-02-15T09:03:23;2.75;;;0.98;;
36001;SDS011;22070;50.922;5.430;2024-02-15T09:05:49;3.70;;;0.87;;
36001;SDS011;22070;50.922;5.430;2024-02-15T09:08:15;2.03;;;0.50;;
36001;SDS011;22070;50.922;5.430;2024-02-15T09:10:45;2.42;;;0.70;;
36001;SDS011;22070;50.922;5.430;2024-02-15T09:13:10;4.03;;;1.00;;
36001;SDS011;22070;50.922;5.430;2024-02-15T09:15:36;2.90;;;0.83;;
36001;SDS011;22070;50.922;5.430;2024-02-15T09:18:01;3.47;;;0.70;;
36001;SDS011;22070;50.922;5.430;2024-02-15T09:20:27;1.27;;;0.57;;
36001;SDS011;22070;50.922;5.430;2024-02-15T09:22:53;4.27;;;0.70;;
36001;SDS011;22070;50.922;5.430;2024-02-15T09:25:20;2.53;;;0.70;;
36001;SDS011;22070;50.922;5.430;2024-02-15T09:27:51;2.15;;;0.82;;
36001;SDS011;22070;50.922;5.430;2024-02-15T09:30:18;2.85;;;0.63;;
36001;SDS011;22070;50.922;5.430;2024-02-15T09:32:44;1.23;;;0.53;;
36001;SDS011;22070;50.922;5.430;2024-02-15T09:35:11;2.33;;;0.50;;
36001;SDS011;22070;50.922;5.430;2024-02-15T09:42:37;2.47;;;0.60;;
36001;SDS011;22070;50.922;5.430;2024-02-15T09:45:04;3.65;;;0.68;;
36001;SDS011;22070;50.922;5.430;2024-02-15T09:47:33;3.72;;;0.50;;
36001;SDS011;22070;50.922;5.430;2024-02-15T09:50:06;3.10;;;0.52;;
36001;SDS011;22070;50.922;5.430;2024-02-15T09:52:47;1.73;;;0.60;;
36001;SDS011;22070;50.922;5.430;2024-02-15T09:55:16;2.55;;;0.50;;
36001;SDS011;22070;50.922;5.430;2024-02-15T09:57:43;2.13;;;0.50;;
36001;SDS011;22070;50.922;5.430;2024-02-15T10:00:11;2.95;;;0.68;;
36001;SDS011;22070;50.922;5.430;2024-02-15T10:02:38;2.58;;;0.52;;
36001;SDS011;22070;50.922;5.430;2024-02-15T10:05:05;1.20;;;0.75;;
36001;SDS011;22070;50.922;5.430;2024-02-15T10:07:37;2.47;;;0.77;;
36001;SDS011;22070;50.922;5.430;2024-02-15T10:12:50;4.53;;;0.70;;
36001;SDS011;22070;50.922;5.430;2024-02-15T10:15:32;2.15;;;0.60;;
36001;SDS011;22070;50.922;5.430;2024-02-15T10:18:07;2.45;;;0.65;;
36001;SDS011;22070;50.922;5.430;2024-02-15T10:20:35;1.92;;;0.57;;
36001;SDS011;22070;50.922;5.430;2024-02-15T10:25:35;1.70;;;0.50;;
36001;SDS011;22070;50.922;5.430;2024-02-15T10:28:05;2.03;;;0.52;;
36001;SDS011;22070;50.922;5.430;2024-02-15T10:30:35;2.50;;;0.52;;
36001;SDS011;22070;50.922;5.430;2024-02-15T10:33:02;1.45;;;0.50;;
36001;SDS011;22070;50.922;5.430;2024-02-15T10:35:29;3.47;;;1.08;;
36001;SDS011;22070;50.922;5.430;2024-02-15T10:40:35;1.45;;;0.40;;
36001;SDS011;22070;50.922;5.430;2024-02-15T10:43:06;0.65;;;0.40;;
36001;SDS011;22070;50.922;5.430;2024-02-15T10:45:34;3.13;;;0.50;;
36001;SDS011;22070;50.922;5.430;2024-02-15T10:48:01;3.28;;;0.50;;
36001;SDS011;22070;50.922;5.430;2024-02-15T10:50:30;2.70;;;0.32;;
36001;SDS011;22070;50.922;5.430;2024-02-15T10:52:58;1.63;;;0.70;;
36001;SDS011;22070;50.922;5.430;2024-02-15T10:55:38;0.93;;;0.50;;
36001;SDS011;22070;50.922;5.430;2024-02-15T10:58:08;2.13;;;0.40;;
36001;SDS011;22070;50.922;5.430;2024-02-15T11:00:38;3.33;;;0.50;;
36001;SDS011;22070;50.922;5.430;2024-02-15T11:03:09;5.53;;;0.60;;
36001;SDS011;22070;50.922;5.430;2024-02-15T11:05:38;5.57;;;0.52;;
36001;SDS011;22070;50.922;5.430;2024-02-15T11:08:07;1.75;;;0.45;;
36001;SDS011;22070;50.922;5.430;2024-02-15T11:10:34;0.55;;;0.45;;
36001;SDS011;22070;50.922;5.430;2024-02-15T11:13:01;1.00;;;0.40;;
36001;SDS011;22070;50.922;5.430;2024-02-15T11:21:16;1.42;;;0.50;;
36001;SDS011;22070;50.922;5.430;2024-02-15T11:29:48;4.75;;;0.75;;
36001;SDS011;22070;50.922;5.430;2024-02-15T11:32:35;2.22;;;0.35;;
36001;SDS011;22070;50.922;5.430;2024-02-15T11:40:15;4.28;;;0.70;;
36001;SDS011;22070;50.922;5.430;2024-02-15T11:42:42;3.70;;;0.50;;
36001;SDS011;22070;50.922;5.430;2024-02-15T11:45:08;1.75;;;0.77;;
36001;SDS011;22070;50.922;5.430;2024-02-15T11:47:37;2.97;;;0.75;;
36001;SDS011;22070;50.922;5.430;2024-02-15T11:50:08;3.10;;;0.75;;
36001;SDS011;22070;50.922;5.430;2024-02-15T11:52:40;5.07;;;0.47;;
36001;SDS011;22070;50.922;5.430;2024-02-15T11:55:07;2.60;;;0.60;;
36001;SDS011;22070;50.922;5.430;2024-02-15T11:57:38;3.05;;;0.55;;
36001;SDS011;22070;50.922;5.430;2024-02-15T12:00:22;2.67;;;0.60;;
36001;SDS011;22070;50.922;5.430;2024-02-15T12:03:07;3.20;;;0.68;;
36001;SDS011;22070;50.922;5.430;2024-02-15T12:05:52;3.30;;;1.17;;
36001;SDS011;22070;50.922;5.430;2024-02-15T12:08:37;2.35;;;0.63;;
36001;SDS011;22070;50.922;5.430;2024-02-15T12:11:21;1.15;;;0.60;;
36001;SDS011;22070;50.922;5.430;2024-02-15T12:14:05;3.72;;;0.70;;
36001;SDS011;22070;50.922;5.430;2024-02-15T12:16:59;4.30;;;0.60;;
36001;SDS011;22070;50.922;5.430;2024-02-15T12:19:44;2.55;;;0.65;;
36001;SDS011;22070;50.922;5.430;2024-02-15T12:22:11;1.33;;;0.55;;
36001;SDS011;22070;50.922;5.430;2024-02-15T12:24:37;2.83;;;0.53;;
36001;SDS011;22070;50.922;5.430;2024-02-15T12:27:03;1.97;;;0.70;;
36001;SDS011;22070;50.922;5.430;2024-02-15T12:29:30;2.60;;;0.80;;
36001;SDS011;22070;50.922;5.430;2024-02-15T12:31:58;1.67;;;0.70;;
36001;SDS011;22070;50.922;5.430;2024-02-15T12:34:24;2.08;;;0.50;;
36001;SDS011;22070;50.922;5.430;2024-02-15T12:36:49;6.80;;;0.80;;
36001;SDS011;22070;50.922;5.430;2024-02-15T12:39:23;3.88;;;0.55;;
36001;SDS011;22070;50.922;5.430;2024-02-15T12:41:50;2.42;;;1.42;;
36001;SDS011;22070;50.922;5.430;2024-02-15T12:44:16;1.35;;;0.90;;
36001;SDS011;22070;50.922;5.430;2024-02-15T12:46:43;2.28;;;0.60;;
36001;SDS011;22070;50.922;5.430;2024-02-15T12:49:12;1.58;;;0.40;;
36001;SDS011;22070;50.922;5.430;2024-02-15T12:51:49;1.13;;;0.65;;
36001;SDS011;22070;50.922;5.430;2024-02-15T12:54:22;2.10;;;0.75;;
36001;SDS011;22070;50.922;5.430;2024-02-15T12:56:48;2.08;;;0.70;;
36001;SDS011;22070;50.922;5.430;2024-02-15T12:59:14;3.27;;;0.50;;
36001;SDS011;22070;50.922;5.430;2024-02-15T13:01:41;2.35;;;0.70;;
36001;SDS011;22070;50.922;5.430;2024-02-15T13:04:07;1.77;;;0.70;;
36001;SDS011;22070;50.922;5.430;2024-02-15T13:06:33;0.90;;;0.43;;
36001;SDS011;22070;50.922;5.430;2024-02-15T13:09:01;3.03;;;0.57;;
36001;SDS011;22070;50.922;5.430;2024-02-15T13:11:30;1.25;;;0.50;;
36001;SDS011;22070;50.922;5.430;2024-02-15T13:16:22;1.53;;;0.37;;
36001;SDS011;22070;50.922;5.430;2024-02-15T13:18:48;1.48;;;0.63;;
36001;SDS011;22070;50.922;5.430;2024-02-15T13:21:14;1.70;;;0.47;;
36001;SDS011;22070;50.922;5.430;2024-02-15T13:23:40;1.33;;;0.37;;
36001;SDS011;22070;50.922;5.430;2024-02-15T13:26:05;2.63;;;0.50;;
36001;SDS011;22070;50.922;5.430;2024-02-15T13:28:33;1.90;;;0.47;;
36001;SDS011;22070;50.922;5.430;2024-02-15T13:30:58;1.00;;;0.40;;
36001;SDS011;22070;50.922;5.430;2024-02-15T13:33:24;3.33;;;0.50;;
36001;SDS011;22070;50.922;5.430;2024-02-15T13:35:51;0.82;;;0.47;;
36001;SDS011;22070;50.922;5.430;2024-02-15T13:38:17;1.17;;;0.50;;
36001;SDS011;22070;50.922;5.430;2024-02-15T13:40:48;1.25;;;0.60;;
36001;SDS011;22070;50.922;5.430;2024-02-15T13:43:17;0.50;;;0.40;;
36001;SDS011;22070;50.922;5.430;2024-02-15T13:45:43;2.05;;;0.63;;
36001;SDS011;22070;50.922;5.430;2024-02-15T13:48:10;1.52;;;0.70;;
36001;SDS011;22070;50.922;5.430;2024-02-15T13:50:39;1.60;;;0.75;;
36001;SDS011;22070;50.922;5.430;2024-02-15T13:53:05;1.97;;;0.70;;
36001;SDS011;22070;50.922;5.430;2024-02-15T13:55:31;4.80;;;0.98;;
36001;SDS011;22070;50.922;5.430;2024-02-15T13:57:57;4.67;;;1.27;;
36001;SDS011;22070;50.922;5.430;2024-02-15T14:00:25;3.05;;;0.82;;
36001;SDS011;22070;50.922;5.430;2024-02-15T14:02:59;2.88;;;1.00;;
36001;SDS011;22070;50.922;5.430;2024-02-15T14:05:26;2.25;;;0.73;;
36001;SDS011;22070;50.922;5.430;2024-02-15T14:08:03;1.20;;;0.40;;
36001;SDS011;22070;50.922;5.430;2024-02-15T14:10:34;2.00;;;0.80;;
36001;SDS011;22070;50.922;5.430;2024-02-15T14:13:01;2.28;;;0.68;;
36001;SDS011;22070;50.922;5.430;2024-02-15T14:15:31;1.33;;;0.60;;
36001;SDS011;22070;50.922;5.430;2024-02-15T14:18:07;1.02;;;0.70;;
36001;SDS011;22070;50.922;5.430;2024-02-15T14:20:35;4.57;;;1.15;;
36001;SDS011;22070;50.922;5.430;2024-02-15T14:25:31;1.75;;;0.80;;
36001;SDS011;22070;50.922;5.430;2024-02-15T14:30:23;2.70;;;0.80;;
36001;SDS011;22070;50.922;5.430;2024-02-15T14:33:08;1.77;;;0.70;;
36001;SDS011;22070;50.922;5.430;2024-02-15T14:35:36;1.50;;;0.65;;
36001;SDS011;22070;50.922;5.430;2024-02-15T14:38:04;0.90;;;0.40;;
36001;SDS011;22070;50.922;5.430;2024-02-15T14:40:33;1.10;;;0.60;;
36001;SDS011;22070;50.922;5.430;2024-02-15T14:43:00;0.98;;;0.60;;
36001;SDS011;22070;50.922;5.430;2024-02-15T14:45:27;1.58;;;0.60;;
36001;SDS011;22070;50.922;5.430;2024-02-15T14:47:53;2.72;;;0.73;;
36001;SDS011;22070;50.922;5.430;2024-02-15T14:50:19;1.10;;;0.70;;
36001;SDS011;22070;50.922;5.430;2024-02-15T14:52:46;2.17;;;0.70;;
36001;SDS011;22070;50.922;5.430;2024-02-15T14:55:13;1.13;;;0.73;;
36001;SDS011;22070;50.922;5.430;2024-02-15T14:57:38;2.53;;;0.70;;
36001;SDS011;22070;50.922;5.430;2024-02-15T15:00:05;1.40;;;0.80;;
36001;SDS011;22070;50.922;5.430;2024-02-15T15:02:39;2.03;;;0.80;;
36001;SDS011;22070;50.922;5.430;2024-02-15T15:05:06;2.13;;;1.00;;
36001;SDS011;22070;50.922;5.430;2024-02-15T15:07:51;3.22;;;0.90;;
36001;SDS011;22070;50.922;5.430;2024-02-15T15:10:35;8.80;;;2.63;;
36001;SDS011;22070;50.922;5.430;2024-02-15T15:13:19;7.85;;;2.67;;
36001;SDS011;22070;50.922;5.430;2024-02-15T15:15:44;4.30;;;1.70;;
36001;SDS011;22070;50.922;5.430;2024-02-15T15:18:11;4.38;;;1.50;;
36001;SDS011;22070;50.922;5.430;2024-02-15T15:20:37;3.30;;;1.30;;
36001;SDS011;22070;50.922;5.430;2024-02-15T15:23:03;2.00;;;0.83;;
36001;SDS011;22070;50.922;5.430;2024-02-15T15:25:31;1.73;;;1.00;;
36001;SDS011;22070;50.922;5.430;2024-02-15T15:27:59;2.60;;;0.88;;
36001;SDS011;22070;50.922;5.430;2024-02-15T15:30:25;2.30;;;1.00;;
36001;SDS011;22070;50.922;5.430;2024-02-15T15:32:51;2.43;;;1.07;;
36001;SDS011;22070;50.922;5.430;2024-02-15T15:35:18;3.35;;;0.82;;
36001;SDS011;22070;50.922;5.430;2024-02-15T15:37:46;1.33;;;0.80;;
36001;SDS011;22070;50.922;5.430;2024-02-15T15:40:15;2.47;;;0.70;;